»·PEaware :: N491H KFUL-L70

N491H :: KFUL-L70

FLIGHT INFORMATION

Flight Status: Arrived
Operator: Privately registered:
United States
More flights under this callsign
Pilot: Edward H. (2712)
Aircraft: CESSNA 172 SKYHAWK
(C172)
More flights by this aircraft type
Origin: KFUL Fullerton Mun
United States
Destination: L70 Agua Dulce
United States
More flights between these airports :: More routes between these airports
Route: +
File this flight plan on PilotEdge
Remarks:
Altitude:
(Current/Filed)
0ft
Speed:
(Current/Filed)
0kts
Departed: 14-Jun-18 09:46 AM
Arrived: 14-Jun-18 10:17 AM
Distance/Time
Traveled:
41nm/0:30
Distance/Time
To Go:
Arrived

Flight Plot

Page will automatically refresh every two minutes.

Flight plan parsing failed; only flown route is shown


Map Options




Map Legend


Flown Route
Filed Route
Departure Airport
Arrival Airport
Navaid (VOR, NDB)
Fix

Horizontal Profiles

Position Reports

Time Latitude Longitude Heading Altitude Ground
Speed
14-Jun-18 09:41 33.872541 -117.981282 212 100ft 5kts
14-Jun-18 09:42 33.872484 -117.979644 74 100ft 6kts
14-Jun-18 09:43 33.873148 -117.976215 77 100ft 11kts
14-Jun-18 09:44 33.873200 -117.975894 86 100ft 0kts
14-Jun-18 09:45 33.873200 -117.975894 86 100ft 0kts
14-Jun-18 09:46 33.871629 -117.982039 257 100ft 71kts
14-Jun-18 09:47 33.877120 -117.998297 352 777ft 70kts
14-Jun-18 09:48 33.896018 -118.001113 345 1394ft 74kts
14-Jun-18 09:49 33.916295 -118.005423 348 1960ft 80kts
14-Jun-18 09:50 33.937454 -118.009230 349 2462ft 88kts
14-Jun-18 09:51 33.968157 -118.014238 351 2104ft 109kts
14-Jun-18 09:52 33.997505 -118.019351 351 2275ft 120kts
14-Jun-18 09:53 34.023572 -118.023826 350 2737ft 75kts
14-Jun-18 09:54 34.045688 -118.027864 351 2876ft 111kts
14-Jun-18 09:55 34.056566 -118.029737 351 2875ft 116kts
14-Jun-18 09:56 34.087019 -118.035963 335 3078ft 108kts
14-Jun-18 09:57 34.112139 -118.052444 331 3462ft 105kts
14-Jun-18 09:58 34.136199 -118.068515 330 3845ft 102kts
14-Jun-18 09:59 34.159735 -118.084279 330 4231ft 99kts
14-Jun-18 10:00 34.183082 -118.099918 330 4625ft 96kts
14-Jun-18 10:01 34.205957 -118.115276 330 5022ft 93kts
14-Jun-18 10:02 34.228191 -118.130174 330 5420ft 90kts
14-Jun-18 10:03 34.248296 -118.143671 330 5793ft 87kts
14-Jun-18 10:04 34.269010 -118.157563 329 6190ft 84kts
14-Jun-18 10:05 34.287707 -118.170107 327 6478ft 87kts
14-Jun-18 10:06 34.309578 -118.184760 327 6499ft 105kts
14-Jun-18 10:07 34.333375 -118.200767 327 6516ft 107kts
14-Jun-18 10:08 34.357510 -118.217024 326 6520ft 108kts
14-Jun-18 10:09 34.382206 -118.233660 326 6523ft 110kts
14-Jun-18 10:10 34.410127 -118.244274 348 6308ft 115kts
14-Jun-18 10:11 34.436699 -118.248600 338 6057ft 113kts
14-Jun-18 10:12 34.463979 -118.258994 339 5467ft 122kts
14-Jun-18 10:13 34.489219 -118.263909 343 5037ft 74kts
14-Jun-18 10:14 34.503334 -118.274049 302 4479ft 65kts
14-Jun-18 10:15 34.513474 -118.288831 286 3691ft 68kts
14-Jun-18 10:16 34.507717 -118.306419 238 2837ft 59kts
14-Jun-18 10:17 34.503150 -118.313843 275 2664ft 3kts
14-Jun-18 10:18 34.503236 -118.314683 153 2664ft 0kts
14-Jun-18 10:19 34.503234 -118.314682 157 2664ft 0kts
14-Jun-18 10:20 34.503234 -118.314682 157 2664ft 0kts
14-Jun-18 10:21 34.504101 -118.313044 53 2664ft 6kts
14-Jun-18 10:22 34.504342 -118.311804 230 2664ft 0kts
14-Jun-18 10:23 34.497510 -118.321502 209 2806ft 70kts
14-Jun-18 10:24 34.497373 -118.302662 73 3250ft 85kts
14-Jun-18 10:25 34.503200 -118.277523 83 3851ft 85kts
14-Jun-18 10:26 34.501303 -118.252479 97 4298ft 83kts
14-Jun-18 10:27 34.508338 -118.226866 38 4664ft 96kts
14-Jun-18 10:28 34.525063 -118.198989 64 4969ft 112kts
14-Jun-18 10:29 34.536586 -118.165029 74 5265ft 116kts
14-Jun-18 10:30 34.546047 -118.129497 77 5548ft 116kts
14-Jun-18 10:31 34.554728 -118.094372 79 5825ft 116kts

Navigation Log

Ident Type
Flight plan parsing failed, navigation log unavailable